Flight Track Log - Related Links

Times and Time Zones

All times are in EDT time to prevent confusion due to time zone crossing. See the ASQ5941 flight status page for this flight to view local times or setup timezone preferences in your user account.

Time Position Orientation Groundspeed Altitude Reporting Facility
EDT Latitude Longitude Course Direction KTS MPH feet Rate Location/Type
Fri 05:49:27 PM 41.4933 -75.6675 340° North 255 293 8,100  Level New York Center
Fri 05:50:00 PM 41.4443 -75.9720 304° West  Level FlightAware Approximate
Fri 05:50:28 PM 41.5467 -75.7408 314° West 274 315 9,900  Level New York Center
Fri 05:51:00 PM 41.5013 -76.0629 315° West  Level FlightAware Approximate
Fri 05:51:29 PM 41.5814 -75.8542 292° West 304 350 10,700  Level New York Center
Fri 05:52:00 PM 41.5616 -76.1508 312° West  Level FlightAware Approximate
Fri 05:52:27 PM 41.6158 -75.9733 291° West 332 382 12,500  Level New York Center
Fri 05:53:00 PM 41.6177 -76.2435 307° West  Level FlightAware Approximate
Fri 05:53:27 PM 41.6442 -76.0811 289° West 347 399 14,200  Level New York Center
Fri 05:54:28 PM 41.6839 -76.2203 291° West 354 407 16,200 1,785 Climbing New York Center
Fri 05:55:28 PM 41.7178 -76.3425 290° West 354 407 17,800 1,587 Climbing New York Center
Fri 05:56:29 PM 41.7500 -76.4539 291° West 354 407 19,400 1,785 Climbing New York Center
Fri 05:57:29 PM 41.7836 -76.5733 291° West 354 407 21,400 2,034 Climbing New York Center
Fri 05:58:27 PM 41.8189 -76.7019 290° West 348 400 23,400 2,034 Climbing New York Center
Fri 05:59:27 PM 41.8508 -76.8133 291° West 334 384 25,400 1,600 Climbing New York Center
Fri 06:00:27 PM 41.8806 -76.9247 290° West 324 373 26,600 974 Climbing New York Center
Fri 06:01:24 PM 41.9117 -77.0419 290° West 327 376 27,300 821 Climbing Cleveland Center
Fri 06:02:24 PM 41.9422 -77.1519 291° West 332 382 28,200 900 Climbing Cleveland Center
Fri 06:03:24 PM 41.9772 -77.2814 290° West 351 404 29,100 850 Climbing Cleveland Center
Fri 06:04:24 PM 42.0122 -77.4167 289° West 371 427 29,900 850 Climbing Cleveland Center
Fri 06:05:24 PM 42.0494 -77.5547 290° West 383 441 30,800 750 Climbing Cleveland Center
Fri 06:06:24 PM 42.0864 -77.6928 290° West 388 447 31,400 550 Climbing Cleveland Center
Fri 06:07:24 PM 42.1253 -77.8394 290° West 405 466 31,900 300 Climbing Cleveland Center
Fri 06:08:24 PM 42.1642 -77.9919 289° West 419 482 32,000 50 Climbing Cleveland Center
Fri 06:09:24 PM 42.2050 -78.1417 290° West 424 488 32,000  Level Cleveland Center
Fri 06:10:24 PM 42.2436 -78.2917 289° West 424 488 32,000  Level Cleveland Center
Fri 06:11:24 PM 42.2797 -78.4392 288° West 418 481 32,000  Level Cleveland Center
Fri 06:12:24 PM 42.3181 -78.5894 289° West 418 481 32,000  Level Cleveland Center
Fri 06:13:24 PM 42.3578 -78.7372 290° West 418 481 32,000  Level Cleveland Center
Fri 06:14:24 PM 42.3956 -78.8850 289° West 418 481 32,000  Level Cleveland Center
Fri 06:15:24 PM 42.4375 -79.0556 288° West 423 487 32,000  Level Cleveland Center
Fri 06:16:24 PM 42.4706 -79.1897 289° West 428 493 32,000  Level Cleveland Center
Fri 06:17:24 PM 42.4953 -79.3414 283° West 420 483 32,000  Level Cleveland Center
Fri 06:18:24 PM 42.5008 -79.4819 273° West 400 460 32,000  Level Cleveland Center
Fri 06:19:24 PM 42.5103 -79.6172 275° West 379 436 32,000  Level Cleveland Center
Fri 06:20:24 PM 42.5156 -79.7522 273° West 367 422 32,000  Level Cleveland Center
Fri 06:21:24 PM 42.5228 -79.8958 274° West 367 422 32,000  Level Cleveland Center
Fri 06:22:24 PM 42.5256 -80.0478 271° West 384 442 32,000  Level Cleveland Center
Fri 06:23:24 PM 42.5347 -80.2083 274° West 420 483 32,000  Level Cleveland Center
Fri 06:24:24 PM 42.5414 -80.3858 273° West 427 491 32,000  Level Cleveland Center
Fri 06:25:24 PM 42.5456 -80.5494 272° West 433 498 32,000  Level Cleveland Center
Fri 06:26:24 PM 42.5539 -80.7128 274° West 441 507 32,000  Level Cleveland Center
Fri 06:27:24 PM 42.5597 -80.8847 273° West 441 507 32,000  Level Cleveland Center
Fri 06:28:24 PM 42.5656 -81.0483 273° West 441 507 32,000  Level Cleveland Center
Fri 06:29:24 PM 42.5731 -81.2203 273° West 448 516 32,000  Level Cleveland Center
Fri 06:30:24 PM 42.5783 -81.3867 273° West 454 522 32,000  Level Cleveland Center
Fri 06:31:24 PM 42.6000 -81.5564 280° West 454 522 32,000  Level Cleveland Center
Fri 06:32:24 PM 42.6297 -81.7147 284° West 447 514 32,000  Level Cleveland Center
Fri 06:33:24 PM 42.6572 -81.8789 283° West 447 514 32,000  Level Cleveland Center
Fri 06:34:24 PM 42.6864 -82.0464 283° West 452 520 32,000  Level Cleveland Center
Fri 06:35:24 PM 42.7133 -82.2136 282° West 452 520 32,000  Level Cleveland Center
Fri 06:36:24 PM 42.7422 -82.3783 283° West 452 520 32,000  Level Cleveland Center
Fri 06:37:24 PM 42.7728 -82.5433 284° West 452 520 32,000  Level Cleveland Center
Fri 06:38:24 PM 42.7989 -82.7111 282° West 452 520 32,000  Level Cleveland Center
Fri 06:39:24 PM 42.8356 -82.8681 288° West 444 511 32,000  Level Cleveland Center
Fri 06:40:24 PM 42.9081 -82.9925 309° West 421 484 32,000  Level Cleveland Center
Fri 06:41:24 PM 42.9633 -83.1367 298° West 421 484 32,000  Level Cleveland Center
Fri 06:42:24 PM 42.9656 -83.3125 271° West 438 504 32,000  Level Cleveland Center
Fri 06:43:24 PM 42.9675 -83.4944 271° West 463 533 32,000  Level Cleveland Center
Fri 06:44:24 PM 42.9667 -83.6789 270° West 478 550 32,000  Level Cleveland Center
Fri 06:45:24 PM 42.9533 -83.8625 264° West 484 557 32,000  Level Cleveland Center
Fri 06:46:24 PM 42.9375 -84.0517 264° West 492 566 32,000  Level Cleveland Center
Fri 06:46:55 PM 42.9292 -84.1258 261° West 499 574 32,000  Level Chicago Center
Fri 06:47:57 PM 42.9119 -84.3114 263° West 496 571 32,000  Level Chicago Center
Fri 06:48:59 PM 42.8922 -84.4983 262° West 498 573 32,000  Level Chicago Center
Fri 06:50:01 PM 42.8728 -84.6819 262° West 494 568 32,000  Level Chicago Center
Fri 06:51:03 PM 42.8503 -84.9042 262° West 494 568 32,000  Level Chicago Center
Fri 06:52:05 PM 42.8311 -85.0889 262° West 493 567 32,000 -629 Level Chicago Center
Fri 06:53:07 PM 42.8117 -85.2689 262° West 486 559 30,700 -1,403 Descending Chicago Center
Fri 06:54:09 PM 42.7919 -85.4428 261° West 468 539 29,100 -1,500 Descending Chicago Center
Fri 06:55:11 PM 42.7647 -85.6156 258° West 466 536 27,600 -1,403 Descending Chicago Center
Fri 06:56:13 PM 42.7336 -85.7939 257° West 477 549 26,200 -1,403 Descending Chicago Center
Fri 06:57:15 PM 42.7011 -85.9692 256° West 476 548 24,700 -1,645 Descending Chicago Center
Fri 06:58:17 PM 42.6644 -86.1719 256° West 462 532 22,800 -1,632 Descending Chicago Center
Fri 06:59:20 PM 42.6339 -86.3322 256° West 443 510 21,300 -1,824 Descending Chicago Center
Fri 07:00:22 PM 42.6044 -86.4878 256° West 427 491 19,000 -2,226 Descending Chicago Center
Fri 07:01:24 PM 42.5772 -86.6372 256° West 410 472 16,700 -2,323 Descending Chicago Center
Fri 07:02:26 PM 42.5467 -86.7783 254° West 393 452 14,200 -2,419 Descending Chicago Center
Fri 07:03:28 PM 42.5094 -86.9108 249° West 381 438 11,700 -1,984 Descending Chicago Center
Fri 07:04:30 PM 42.4681 -87.0578 249° West 352 405 10,100 -1,200 Descending Chicago Center
Fri 07:05:33 PM 42.4406 -87.1628 250° West 305 351 9,200 -532 Descending Chicago Center
Fri 07:06:34 PM 42.4119 -87.2642 249° West 292 336 9,000 -98 Descending Chicago Center
Fri 07:07:36 PM 42.3833 -87.3739 251° West 304 350 9,000 -339 Level Chicago Center
Fri 07:08:38 PM 42.3525 -87.4692 246° West 288 331 8,300 -919 Descending Chicago Center
Fri 07:09:40 PM 42.2942 -87.5678 231° Southwest 281 323 7,100 -823 Descending Chicago Center
Fri 07:10:42 PM 42.2350 -87.6322 219° Southwest 275 316 6,600 -864 Descending Chicago Center
Fri 07:11:45 PM 42.1792 -87.6947 220° Southwest 265 305 5,300 -1,248 Descending Chicago Center
Fri 07:12:47 PM 42.1258 -87.7561 220° Southwest 256 295 4,000 -1,258 Descending Chicago Center

Login

Don't have an account? Register now (free) for customized features, flight alerts, and more!